createdAt,value
2019-03-25T00:00:43.586Z,37.57
2019-03-25T00:03:17.222Z,34.63
2019-03-25T00:05:47.669Z,36.67
2019-03-25T00:08:18.110Z,34.73
2019-03-25T00:10:48.598Z,35.07
2019-03-25T00:13:19.045Z,36.40
2019-03-25T00:15:49.540Z,40.67
2019-03-25T00:18:20.069Z,43.77
2019-03-25T00:20:50.567Z,40.00
2019-03-25T00:23:20.998Z,39.47
2019-03-25T00:25:51.457Z,37.90
2019-03-25T00:28:21.893Z,35.13
2019-03-25T00:30:52.382Z,37.23
2019-03-25T00:33:22.824Z,35.93
2019-03-25T00:35:53.301Z,37.10
2019-03-25T00:38:23.743Z,38.03
2019-03-25T00:40:54.221Z,40.03
2019-03-25T00:43:24.682Z,39.60
2019-03-25T00:45:55.131Z,41.13
2019-03-25T00:48:25.535Z,43.13
2019-03-25T00:51:01.758Z,42.17
2019-03-25T00:53:32.181Z,41.70
2019-03-25T00:56:02.579Z,39.20
2019-03-25T00:58:33.014Z,42.80
2019-03-25T01:01:03.470Z,42.27
2019-03-25T01:03:33.874Z,41.63
2019-03-25T01:06:04.432Z,39.80
2019-03-25T01:08:34.948Z,40.50
2019-03-25T01:11:05.516Z,42.00
2019-03-25T01:13:37.865Z,39.00
2019-03-25T01:16:14.336Z,39.53
2019-03-25T01:18:44.827Z,39.87
2019-03-25T01:21:15.277Z,40.00
2019-03-25T01:23:45.697Z,40.03
2019-03-25T01:26:16.109Z,40.37
2019-03-25T01:28:46.543Z,40.87
2019-03-25T01:31:16.993Z,45.20
2019-03-25T01:33:47.413Z,43.90
2019-03-25T01:36:17.879Z,45.10
2019-03-25T01:38:48.300Z,51.87
2019-03-25T01:41:18.784Z,48.73
2019-03-25T01:43:49.199Z,44.73
2019-03-25T01:46:19.694Z,43.60
2019-03-25T01:48:50.163Z,43.43
2019-03-25T01:51:21.735Z,46.27
2019-03-25T01:53:52.126Z,44.33
2019-03-25T01:56:22.603Z,42.93
2019-03-25T01:58:53.190Z,42.60
2019-03-25T02:01:23.662Z,42.83
2019-03-25T02:03:54.107Z,41.60
2019-03-25T02:06:24.578Z,41.37
2019-03-25T02:08:54.965Z,43.40
2019-03-25T02:11:25.476Z,42.40
2019-03-25T02:13:55.941Z,42.40
2019-03-25T02:16:26.393Z,44.40
2019-03-25T02:18:56.808Z,42.43
2019-03-25T02:21:27.259Z,42.97
2019-03-25T02:23:57.672Z,41.97
2019-03-25T02:26:28.147Z,44.07
2019-03-25T02:28:58.561Z,42.10
2019-03-25T02:31:29.002Z,43.87
2019-03-25T02:33:59.397Z,40.90
2019-03-25T02:36:29.860Z,41.40
2019-03-25T02:39:00.273Z,40.97
2019-03-25T02:41:30.741Z,42.27
2019-03-25T02:44:01.151Z,44.20
2019-03-25T02:46:31.621Z,41.67
2019-03-25T02:49:02.093Z,43.47
2019-03-25T02:51:33.633Z,45.83
2019-03-25T02:54:04.080Z,45.63
2019-03-25T02:56:34.542Z,54.77
2019-03-25T02:59:04.978Z,51.43
2019-03-25T03:01:35.482Z,56.13
2019-03-25T03:04:06.319Z,56.20
2019-03-25T03:06:36.783Z,54.70
2019-03-25T03:09:09.777Z,56.53
2019-03-25T03:11:40.273Z,59.17
2019-03-25T03:14:10.653Z,61.43
2019-03-25T03:16:41.119Z,60.33
2019-03-25T03:19:11.536Z,66.70
2019-03-25T03:21:42.036Z,68.77
2019-03-25T03:24:12.507Z,69.73
2019-03-25T03:26:42.990Z,70.40
2019-03-25T03:29:13.489Z,69.73
2019-03-25T03:31:43.933Z,74.73
2019-03-25T03:34:14.394Z,77.97
2019-03-25T03:36:44.858Z,75.20
2019-03-25T03:39:15.275Z,77.80
2019-03-25T03:41:45.751Z,74.50
2019-03-25T03:44:16.183Z,76.13
2019-03-25T03:46:46.649Z,79.30
2019-03-25T03:49:17.099Z,78.83
2019-03-25T03:51:48.539Z,79.00
2019-03-25T03:54:19.163Z,78.20
2019-03-25T03:56:51.410Z,75.63
2019-03-25T03:59:21.842Z,73.97
2019-03-25T04:01:52.334Z,71.60
2019-03-25T04:04:22.738Z,71.27
2019-03-25T04:06:53.226Z,71.97
2019-03-25T04:09:23.670Z,68.73
2019-03-25T04:11:54.114Z,71.50
2019-03-25T04:14:24.558Z,74.40
2019-03-25T04:16:54.997Z,71.33
2019-03-25T04:19:25.403Z,74.77
2019-03-25T04:21:55.933Z,71.47
2019-03-25T04:24:26.397Z,66.20
2019-03-25T04:26:56.882Z,67.73
2019-03-25T04:29:27.259Z,67.33
2019-03-25T04:31:57.704Z,63.53
2019-03-25T04:34:28.119Z,67.93
2019-03-25T04:36:58.591Z,69.63
2019-03-25T04:39:28.990Z,65.27
2019-03-25T04:41:59.470Z,59.70
2019-03-25T04:44:29.906Z,61.50
2019-03-25T04:47:00.390Z,64.20
2019-03-25T04:49:30.814Z,70.17
2019-03-25T04:52:02.539Z,67.00
2019-03-25T04:54:32.983Z,69.50
2019-03-25T04:57:03.481Z,64.80
2019-03-25T04:59:33.904Z,63.63
2019-03-25T05:02:04.363Z,63.40
2019-03-25T05:04:34.795Z,67.00
2019-03-25T05:07:05.260Z,69.70
2019-03-25T05:09:35.709Z,63.27
2019-03-25T05:12:06.143Z,56.77
2019-03-25T05:14:36.572Z,57.77
2019-03-25T05:17:07.056Z,55.13
2019-03-25T05:19:37.509Z,50.93
2019-03-25T05:22:08.003Z,38.83
2019-03-25T05:24:38.419Z,35.97
2019-03-25T05:27:08.881Z,25.00
2019-03-25T05:29:39.304Z,22.53
2019-03-25T05:32:09.770Z,22.30
2019-03-25T05:34:40.191Z,21.27
2019-03-25T05:37:10.662Z,21.13
2019-03-25T05:39:41.065Z,21.50
2019-03-25T05:42:11.553Z,20.37
2019-03-25T05:44:41.977Z,20.83
2019-03-25T05:47:12.428Z,22.43
2019-03-25T05:49:42.869Z,20.70
2019-03-25T05:52:14.327Z,21.77
2019-03-25T05:54:44.746Z,20.83
2019-03-25T05:57:18.053Z,22.33
2019-03-25T05:59:48.482Z,22.07
2019-03-25T06:02:19.199Z,21.73
2019-03-25T06:04:49.872Z,20.20
2019-03-25T06:07:21.797Z,20.67
2019-03-25T06:09:52.220Z,22.10
2019-03-25T06:12:22.686Z,20.40
2019-03-25T06:14:53.335Z,19.37
2019-03-25T06:17:26.546Z,19.40
2019-03-25T06:19:56.991Z,20.80
2019-03-25T06:22:27.460Z,20.97
2019-03-25T06:24:57.864Z,19.20
2019-03-25T06:27:28.357Z,20.37
2019-03-25T06:29:58.745Z,21.07
2019-03-25T06:32:29.224Z,19.83
2019-03-25T06:34:59.647Z,18.93
2019-03-25T06:37:30.097Z,20.17
2019-03-25T06:40:00.545Z,20.33
2019-03-25T06:42:30.949Z,20.57
2019-03-25T06:45:01.391Z,23.90
2019-03-25T06:47:31.838Z,20.17
2019-03-25T06:50:02.246Z,21.87
2019-03-25T06:52:33.875Z,23.57
2019-03-25T06:55:05.284Z,20.80
2019-03-25T06:57:38.447Z,19.27
2019-03-25T07:00:09.610Z,17.47
2019-03-25T07:02:40.049Z,20.07
2019-03-25T07:05:10.994Z,18.97
2019-03-25T07:07:41.526Z,18.17
2019-03-25T07:10:12.148Z,20.53
2019-03-25T07:12:42.599Z,17.90
2019-03-25T07:15:13.059Z,16.87
2019-03-25T07:17:43.531Z,18.57
2019-03-25T07:20:14.658Z,18.23
2019-03-25T07:22:45.126Z,16.77
2019-03-25T07:25:15.570Z,19.00
2019-03-25T07:27:46.050Z,16.20
2019-03-25T07:30:16.477Z,15.70
2019-03-25T07:32:46.978Z,17.67
2019-03-25T07:35:17.547Z,13.40
2019-03-25T07:37:48.014Z,11.63
2019-03-25T07:40:18.597Z,11.47
2019-03-25T07:42:49.098Z,12.20
2019-03-25T07:45:19.552Z,7.40
2019-03-25T07:47:50.018Z,11.67
2019-03-25T07:50:20.453Z,9.97
2019-03-25T07:52:51.876Z,9.93
2019-03-25T07:55:22.335Z,12.60
2019-03-25T07:57:52.825Z,17.87
2019-03-25T08:00:23.328Z,11.40
2019-03-25T08:02:54.196Z,11.77
2019-03-25T08:05:24.715Z,12.10
2019-03-25T08:07:57.922Z,12.00
2019-03-25T08:10:33.134Z,12.68
2019-03-25T08:13:03.788Z,12.67
2019-03-25T08:15:34.344Z,10.43
2019-03-25T08:18:07.386Z,10.03
2019-03-25T08:20:39.366Z,12.13
2019-03-25T08:23:09.841Z,10.77
2019-03-25T08:25:45.538Z,9.37
2019-03-25T08:28:19.519Z,9.50
2019-03-25T08:30:51.605Z,8.97
2019-03-25T08:33:24.036Z,11.63
2019-03-25T08:35:54.488Z,10.10
2019-03-25T08:38:24.904Z,8.73
2019-03-25T08:40:55.325Z,9.60
2019-03-25T08:43:26.251Z,11.20
2019-03-25T08:45:56.939Z,10.83
2019-03-25T08:48:30.620Z,9.17
2019-03-25T08:51:01.026Z,9.43
2019-03-25T08:53:39.490Z,9.73
2019-03-25T08:56:09.998Z,8.43
2019-03-25T08:58:40.467Z,9.20
2019-03-25T09:01:10.879Z,9.90
2019-03-25T09:03:41.281Z,9.90
2019-03-25T09:06:21.556Z,10.20
2019-03-25T09:08:52.090Z,10.17
2019-03-25T09:11:26.841Z,10.60
2019-03-25T09:14:01.414Z,9.17
2019-03-25T09:16:34.921Z,9.30
2019-03-25T09:19:11.687Z,14.93
2019-03-25T09:21:42.822Z,8.80
2019-03-25T09:24:13.369Z,9.13
2019-03-25T09:26:46.068Z,9.87
2019-03-25T09:29:20.003Z,8.90
2019-03-25T09:31:53.553Z,11.60
2019-03-25T09:34:25.052Z,8.30
2019-03-25T09:36:57.503Z,11.43
2019-03-25T09:39:28.004Z,10.80
2019-03-25T09:41:58.489Z,9.67
2019-03-25T09:44:29.120Z,10.53
2019-03-25T09:46:59.569Z,9.87
2019-03-25T09:49:30.154Z,9.60
2019-03-25T09:52:02.824Z,9.00
2019-03-25T09:54:34.389Z,7.90
2019-03-25T09:57:08.980Z,9.83
2019-03-25T09:59:39.445Z,9.30
2019-03-25T10:02:09.958Z,8.97
2019-03-25T10:04:40.699Z,8.70
2019-03-25T10:07:15.788Z,9.80
2019-03-25T10:09:46.310Z,10.17
2019-03-25T10:12:18.308Z,10.47
2019-03-25T10:14:48.842Z,9.03
2019-03-25T10:17:19.754Z,8.73
2019-03-25T10:19:50.315Z,10.47
2019-03-25T10:22:20.819Z,13.87
2019-03-25T10:24:51.898Z,10.60
2019-03-25T10:27:22.473Z,12.70
2019-03-25T10:33:11.761Z,8.80
2019-03-25T10:35:43.836Z,9.10
2019-03-25T10:38:19.554Z,10.17
2019-03-25T10:40:46.591Z,8.45
2019-03-25T10:43:17.061Z,8.87
2019-03-25T10:45:47.661Z,8.83
2019-03-25T10:48:21.296Z,8.97
2019-03-25T10:51:00.408Z,8.43
2019-03-25T10:53:30.809Z,8.93
2019-03-25T10:56:02.996Z,9.83
2019-03-25T10:58:33.413Z,10.90
2019-03-25T11:01:03.922Z,9.07
2019-03-25T11:03:34.340Z,8.80
2019-03-25T11:06:04.816Z,9.03
2019-03-25T11:08:35.355Z,10.63
2019-03-25T11:11:06.426Z,9.20
2019-03-25T11:13:37.139Z,8.57
2019-03-25T11:16:08.019Z,11.07
2019-03-25T11:18:38.643Z,9.13
2019-03-25T11:21:09.154Z,8.45
2019-03-25T11:23:39.594Z,8.33
2019-03-25T11:26:10.086Z,10.82
2019-03-25T11:28:40.554Z,9.28
2019-03-25T11:31:11.025Z,8.00
2019-03-25T11:33:41.445Z,9.58
2019-03-25T11:36:12.257Z,9.05
2019-03-25T11:38:45.507Z,8.40
2019-03-25T11:41:15.979Z,8.48
2019-03-25T11:43:46.414Z,8.80
2019-03-25T11:46:16.897Z,7.97
2019-03-25T11:48:47.369Z,7.45
2019-03-25T11:51:17.846Z,8.13
2019-03-25T11:53:48.396Z,8.35
2019-03-25T11:56:21.446Z,7.47
2019-03-25T11:58:53.885Z,7.60
2019-03-25T12:01:24.390Z,9.28
2019-03-25T12:03:54.938Z,7.17
2019-03-25T12:06:25.749Z,7.05
2019-03-25T12:08:56.250Z,8.35
2019-03-25T12:11:27.337Z,7.80
2019-03-25T12:14:00.842Z,8.05
2019-03-25T12:16:32.484Z,8.30
2019-03-25T12:19:05.526Z,10.00
2019-03-25T12:21:36.015Z,8.23
2019-03-25T12:24:06.595Z,8.85
2019-03-25T12:26:37.254Z,8.23
2019-03-25T12:29:10.022Z,7.28
2019-03-25T12:31:42.000Z,8.68
2019-03-25T12:34:14.857Z,7.40
2019-03-25T12:36:50.207Z,7.58
2019-03-25T12:39:20.663Z,8.00
2019-03-25T12:41:51.169Z,8.23
2019-03-25T12:44:23.351Z,9.53
2019-03-25T12:46:54.220Z,9.53
2019-03-25T12:49:27.718Z,9.15
2019-03-25T12:51:58.613Z,10.82
2019-03-25T12:54:29.415Z,9.63
2019-03-25T12:57:01.624Z,8.28
2019-03-25T12:59:40.775Z,9.40
2019-03-25T13:02:04.666Z,8.80
2019-03-25T13:04:35.201Z,7.63
2019-03-25T13:07:06.083Z,7.10
2019-03-25T13:09:36.584Z,9.03
2019-03-25T13:12:07.498Z,7.90
2019-03-25T13:14:39.064Z,9.97
2019-03-25T13:17:09.666Z,9.47
2019-03-25T13:19:40.301Z,8.60
2019-03-25T13:22:10.809Z,10.43
2019-03-25T13:24:41.982Z,10.07
2019-03-25T13:27:13.864Z,12.43
2019-03-25T13:29:52.400Z,9.97
2019-03-25T13:32:18.379Z,9.53
2019-03-25T13:34:48.891Z,10.00
2019-03-25T13:37:20.287Z,9.33
2019-03-25T13:39:51.379Z,9.90
2019-03-25T13:42:22.457Z,10.33
2019-03-25T13:44:55.593Z,9.60
2019-03-25T13:47:25.730Z,9.23
2019-03-25T13:49:58.210Z,8.73
2019-03-25T13:52:29.206Z,9.47
2019-03-25T13:55:00.469Z,9.13
2019-03-25T13:57:42.606Z,9.97
2019-03-25T14:00:13.983Z,8.87
2019-03-25T14:02:44.632Z,13.50
2019-03-25T14:05:15.329Z,15.13
2019-03-25T14:08:14.430Z,15.20
2019-03-25T14:10:44.593Z,17.70
2019-03-25T14:13:16.348Z,20.17
2019-03-25T14:15:46.803Z,15.73
2019-03-25T14:18:17.605Z,15.50
2019-03-25T14:20:52.371Z,13.10
2019-03-25T14:23:23.082Z,13.40
2019-03-25T14:25:53.566Z,13.37
2019-03-25T14:28:25.696Z,12.63
2019-03-25T14:31:00.477Z,12.60
2019-03-25T14:33:31.029Z,12.85
2019-03-25T14:36:02.103Z,11.03
2019-03-25T14:38:32.650Z,11.73
2019-03-25T14:41:08.548Z,12.70
2019-03-25T14:44:08.941Z,14.43
2019-03-25T14:46:56.496Z,11.37
2019-03-25T14:49:42.688Z,10.43
2019-03-25T14:52:14.920Z,11.70
2019-03-25T14:54:51.852Z,10.00
2019-03-25T14:57:28.207Z,9.27
2019-03-25T15:00:01.823Z,10.80
2019-03-25T15:02:32.504Z,9.70
2019-03-25T15:05:05.216Z,10.07
2019-03-25T15:07:35.651Z,9.50
2019-03-25T15:10:08.509Z,9.50
2019-03-25T15:12:40.536Z,9.63
2019-03-25T15:15:12.078Z,10.90
2019-03-25T15:17:52.656Z,12.07
2019-03-25T15:20:27.936Z,11.90
2019-03-25T15:22:58.403Z,11.73
2019-03-25T15:25:28.928Z,12.80
2019-03-25T15:27:59.551Z,13.40
2019-03-25T15:30:35.961Z,14.73
2019-03-25T15:33:06.639Z,14.60
2019-03-25T15:35:38.303Z,17.10
2019-03-25T15:38:10.437Z,15.97
2019-03-25T15:40:41.020Z,18.00
2019-03-25T15:43:11.547Z,24.43
2019-03-25T15:45:42.029Z,17.93
2019-03-25T15:48:12.519Z,20.53
2019-03-25T15:50:43.169Z,19.73
2019-03-25T15:53:13.633Z,17.13
2019-03-25T15:55:44.128Z,36.13
2019-03-25T15:58:25.338Z,26.57
2019-03-25T16:00:48.604Z,60.43
2019-03-25T16:03:19.147Z,22.10
2019-03-25T16:05:50.050Z,21.13
2019-03-25T16:08:21.926Z,19.10
2019-03-25T16:10:52.458Z,18.43
2019-03-25T16:13:22.984Z,15.03
2019-03-25T16:15:53.732Z,16.20
2019-03-25T16:18:38.175Z,20.70
2019-03-25T16:21:09.191Z,21.27
2019-03-25T16:23:39.719Z,21.83
2019-03-25T16:26:10.213Z,17.13
2019-03-25T16:28:40.624Z,21.10
2019-03-25T16:31:11.120Z,22.73
2019-03-25T16:33:41.526Z,17.97
2019-03-25T16:36:11.997Z,19.07
2019-03-25T16:38:42.416Z,18.77
2019-03-25T16:41:12.890Z,19.57
2019-03-25T16:43:43.333Z,19.53
2019-03-25T16:46:13.810Z,17.20
2019-03-25T16:48:44.287Z,19.67
2019-03-25T16:51:14.687Z,20.20
2019-03-25T16:53:45.084Z,18.23
2019-03-25T16:56:15.528Z,15.03
2019-03-25T16:58:45.932Z,19.23
2019-03-25T17:01:15.685Z,18.60
2019-03-25T17:03:46.198Z,23.10
2019-03-25T17:06:16.610Z,19.30
2019-03-25T17:08:47.047Z,23.17
2019-03-25T17:11:19.462Z,21.57
2019-03-25T17:13:49.569Z,21.27
2019-03-25T17:16:19.973Z,19.40
2019-03-25T17:18:50.399Z,18.73
2019-03-25T17:21:20.785Z,18.67
2019-03-25T17:23:51.216Z,17.07
2019-03-25T17:26:21.602Z,17.53
2019-03-25T17:28:52.067Z,17.13
2019-03-25T17:31:22.458Z,16.60
2019-03-25T17:33:52.841Z,14.30
2019-03-25T17:36:23.237Z,13.97
2019-03-25T17:38:53.709Z,14.17
2019-03-25T17:41:24.218Z,13.23
2019-03-25T17:43:54.661Z,13.10
2019-03-25T17:46:25.107Z,12.07
2019-03-25T17:48:55.540Z,11.50
2019-03-25T17:51:25.936Z,9.77
2019-03-25T17:53:56.416Z,10.70
2019-03-25T17:56:26.828Z,8.77
2019-03-25T17:58:57.278Z,10.00
2019-03-25T18:01:32.561Z,9.13
2019-03-25T18:04:02.347Z,8.80
2019-03-25T18:06:32.794Z,9.03
2019-03-25T18:09:04.468Z,8.50
2019-03-25T18:11:34.891Z,9.83
2019-03-25T18:14:05.596Z,10.63
2019-03-25T18:16:36.028Z,10.93
2019-03-25T18:19:06.499Z,12.23
2019-03-25T18:21:36.907Z,17.10
2019-03-25T18:24:09.360Z,16.13
2019-03-25T18:26:43.409Z,33.17
2019-03-25T18:29:17.055Z,34.93
2019-03-25T18:31:47.352Z,27.27
2019-03-25T18:34:17.812Z,28.43
2019-03-25T18:36:48.250Z,28.53
2019-03-25T18:39:18.696Z,37.70
2019-03-25T18:41:49.143Z,33.40
2019-03-25T18:44:19.614Z,20.93
2019-03-25T18:46:50.108Z,42.63
2019-03-25T18:49:20.634Z,32.13
2019-03-25T18:51:51.049Z,19.90
2019-03-25T18:54:21.534Z,35.60
2019-03-25T18:56:51.935Z,34.30
2019-03-25T18:59:22.415Z,48.30
2019-03-25T19:01:54.641Z,34.63
2019-03-25T19:04:27.292Z,24.97
2019-03-25T19:06:58.129Z,21.83
2019-03-25T19:09:28.596Z,19.73
2019-03-25T19:11:58.993Z,16.70
2019-03-25T19:14:29.431Z,17.30
2019-03-25T19:16:59.847Z,14.50
2019-03-25T19:19:30.313Z,15.63
2019-03-25T19:22:00.749Z,13.87
2019-03-25T19:24:31.196Z,12.53
2019-03-25T19:27:03.249Z,12.03
2019-03-25T19:29:33.700Z,13.13
2019-03-25T19:32:06.845Z,13.30
2019-03-25T19:34:36.276Z,13.07
2019-03-25T19:37:06.683Z,12.83
2019-03-25T19:39:37.202Z,13.93
2019-03-25T19:42:07.609Z,15.17
2019-03-25T19:44:38.061Z,15.67
2019-03-25T19:47:08.423Z,16.43
2019-03-25T19:49:38.862Z,16.13
2019-03-25T19:52:09.624Z,16.20
2019-03-25T19:54:40.128Z,15.87
2019-03-25T19:57:10.576Z,15.73
2019-03-25T19:59:41.058Z,14.37
2019-03-25T20:02:19.065Z,17.07
2019-03-25T20:04:44.669Z,15.17
2019-03-25T20:07:15.127Z,15.37
2019-03-25T20:09:45.652Z,16.27
2019-03-25T20:12:16.042Z,15.43
2019-03-25T20:14:46.530Z,13.97
2019-03-25T20:17:16.964Z,14.37
2019-03-25T20:19:47.409Z,14.93
2019-03-25T20:22:17.809Z,13.63
2019-03-25T20:24:48.250Z,12.87
2019-03-25T20:27:18.688Z,14.40
2019-03-25T20:29:49.179Z,13.70
2019-03-25T20:32:31.286Z,14.97
2019-03-25T20:34:51.840Z,15.67
2019-03-25T20:37:22.249Z,16.17
2019-03-25T20:39:52.719Z,15.67
2019-03-25T20:42:23.152Z,15.40
2019-03-25T20:44:53.755Z,17.67
2019-03-25T20:47:24.141Z,15.23
2019-03-25T20:49:54.595Z,14.77
2019-03-25T20:52:25.032Z,15.70
2019-03-25T20:54:55.550Z,17.57
2019-03-25T20:57:25.999Z,18.40
2019-03-25T20:59:56.475Z,20.30
2019-03-25T21:02:27.796Z,20.30
2019-03-25T21:04:58.317Z,19.23
2019-03-25T21:07:28.835Z,17.40
2019-03-25T21:09:59.378Z,16.80
2019-03-25T21:12:29.841Z,15.70
2019-03-25T21:15:00.372Z,13.20
2019-03-25T21:17:30.833Z,16.53
2019-03-25T21:20:01.329Z,12.77
2019-03-25T21:22:31.730Z,12.10
2019-03-25T21:25:02.110Z,12.47
2019-03-25T21:27:32.526Z,13.47
2019-03-25T21:30:02.951Z,14.57
2019-03-25T21:32:33.340Z,13.33
2019-03-25T21:35:04.372Z,9.80
2019-03-25T21:37:34.785Z,9.27
2019-03-25T21:40:07.707Z,9.50
2019-03-25T21:42:38.023Z,8.97
2019-03-25T21:45:10.620Z,7.87
2019-03-25T21:47:41.034Z,8.53
2019-03-25T21:50:11.762Z,9.93
2019-03-25T21:52:42.233Z,8.17
2019-03-25T21:55:12.846Z,8.80
2019-03-25T21:57:43.298Z,7.63
2019-03-25T22:00:13.956Z,9.20
2019-03-25T22:02:45.226Z,10.07
2019-03-25T22:05:15.773Z,10.43
2019-03-25T22:07:46.177Z,8.17
2019-03-25T22:10:16.588Z,9.03
2019-03-25T22:12:47.008Z,7.57
2019-03-25T22:15:17.591Z,7.57
2019-03-25T22:17:48.011Z,7.13
2019-03-25T22:20:18.539Z,7.77
2019-03-25T22:22:48.933Z,7.67
2019-03-25T22:25:19.406Z,7.83
2019-03-25T22:27:49.793Z,9.13
2019-03-25T22:30:20.238Z,9.07
2019-03-25T22:32:50.659Z,19.97
2019-03-25T22:35:21.090Z,22.50
2019-03-25T22:37:51.512Z,21.03
2019-03-25T22:40:21.991Z,23.30
2019-03-25T22:42:52.405Z,22.37
2019-03-25T22:45:29.836Z,21.10
2019-03-25T22:48:00.249Z,21.43
2019-03-25T22:50:32.068Z,21.70
2019-03-25T22:53:02.483Z,22.80
2019-03-25T22:55:32.867Z,28.67
2019-03-25T22:58:03.262Z,34.37
2019-03-25T23:00:41.697Z,28.40
2019-03-25T23:03:13.850Z,23.40
2019-03-25T23:05:44.411Z,17.93
2019-03-25T23:08:14.823Z,12.03
2019-03-25T23:10:45.297Z,10.77
2019-03-25T23:13:15.718Z,8.97
2019-03-25T23:15:46.165Z,9.20
2019-03-25T23:18:16.571Z,8.87
2019-03-25T23:20:47.028Z,10.63
2019-03-25T23:23:17.443Z,11.43
2019-03-25T23:25:47.907Z,8.40
2019-03-25T23:28:18.301Z,8.77
2019-03-25T23:30:48.738Z,7.97
2019-03-25T23:33:19.130Z,9.07
2019-03-25T23:35:49.577Z,10.60
2019-03-25T23:38:20.011Z,11.73
2019-03-25T23:40:50.370Z,10.37
2019-03-25T23:43:20.867Z,9.93
2019-03-25T23:45:51.325Z,10.03
2019-03-25T23:48:21.709Z,8.50
2019-03-25T23:50:52.153Z,7.20
2019-03-25T23:53:22.554Z,7.00
2019-03-25T23:55:53.006Z,9.17
2019-03-25T23:58:23.407Z,7.07
